createdAt,value
2023-01-27T00:01:36.479Z,21.70
2023-01-27T00:04:05.168Z,21.90
2023-01-27T00:06:36.851Z,15.50
2023-01-27T00:09:06.026Z,19.10
2023-01-27T00:11:52.983Z,18.90
2023-01-27T00:14:22.637Z,19.90
2023-01-27T00:16:51.114Z,18.10
2023-01-27T00:19:19.597Z,17.40
2023-01-27T00:22:06.337Z,20.10
2023-01-27T00:24:38.096Z,18.20
2023-01-27T00:27:08.977Z,18.70
2023-01-27T00:29:40.544Z,15.90
2023-01-27T00:32:28.811Z,17.40
2023-01-27T00:34:57.719Z,18.70
2023-01-27T00:37:27.016Z,16.70
2023-01-27T00:39:56.339Z,18.50
2023-01-27T00:42:25.034Z,19.10
2023-01-27T00:45:12.114Z,17.20
2023-01-27T00:47:41.904Z,18.30
2023-01-27T00:50:12.127Z,19.60
2023-01-27T00:52:40.877Z,19.10
2023-01-27T00:55:10.384Z,19.50
2023-01-27T00:57:39.410Z,18.20
2023-01-27T01:00:11.367Z,19.10
2023-01-27T01:02:39.933Z,17.70
2023-01-27T01:05:09.837Z,20.50
2023-01-27T01:07:38.433Z,19.30
2023-01-27T01:10:11.859Z,19.10
2023-01-27T01:12:40.687Z,20.00
2023-01-27T01:15:10.639Z,20.40
2023-01-27T01:17:40.390Z,20.00
2023-01-27T01:20:12.057Z,22.20
2023-01-27T01:22:40.711Z,23.40
2023-01-27T01:25:09.775Z,19.40
2023-01-27T01:27:38.172Z,19.20
2023-01-27T01:30:10.230Z,20.40
2023-01-27T01:32:38.772Z,18.50
2023-01-27T01:35:08.621Z,20.00
2023-01-27T01:37:37.077Z,18.80
2023-01-27T01:40:11.793Z,18.50
2023-01-27T01:42:54.577Z,19.80
2023-01-27T01:45:49.207Z,15.90
2023-01-27T01:48:23.038Z,16.40
2023-01-27T01:50:57.709Z,18.20
2023-01-27T01:53:32.421Z,19.00
2023-01-27T01:56:06.262Z,17.80
2023-01-27T01:58:36.373Z,18.40
2023-01-27T02:01:06.693Z,17.60
2023-01-27T02:03:39.455Z,18.80
2023-01-27T02:08:39.933Z,16.50
2023-01-27T02:11:08.530Z,16.80
2023-01-27T02:13:39.954Z,16.70
2023-01-27T02:16:11.626Z,16.10
2023-01-27T02:18:41.899Z,18.30
2023-01-27T02:21:10.865Z,14.90
2023-01-27T02:23:55.147Z,17.40
2023-01-27T02:26:28.617Z,15.50
2023-01-27T02:28:58.710Z,15.70
2023-01-27T02:31:27.897Z,16.20
2023-01-27T02:34:03.075Z,16.50
2023-01-27T02:36:34.339Z,14.90
2023-01-27T02:39:05.023Z,15.00
2023-01-27T02:41:37.336Z,15.90
2023-01-27T02:44:06.602Z,16.80
2023-01-27T02:46:35.401Z,19.10
2023-01-27T02:49:04.499Z,17.60
2023-01-27T02:51:32.917Z,16.70
2023-01-27T02:54:01.366Z,17.90
2023-01-27T02:56:30.300Z,18.90
2023-01-27T02:58:59.053Z,19.20
2023-01-27T03:01:32.983Z,18.60
2023-01-27T03:04:01.632Z,17.50
2023-01-27T03:06:30.185Z,18.30
2023-01-27T03:08:59.215Z,17.50
2023-01-27T03:11:48.992Z,16.40
2023-01-27T03:14:17.519Z,18.10
2023-01-27T03:17:06.973Z,18.90
2023-01-27T03:19:35.416Z,18.80
2023-01-27T03:22:04.468Z,17.40
2023-01-27T03:24:34.439Z,17.90
2023-01-27T03:27:06.299Z,17.60
2023-01-27T03:30:01.099Z,19.10
2023-01-27T03:32:32.952Z,17.10
2023-01-27T03:35:33.529Z,17.70
2023-01-27T03:38:21.065Z,18.80
2023-01-27T03:41:07.421Z,17.50
2023-01-27T03:43:54.161Z,18.90
2023-01-27T03:46:22.772Z,18.60
2023-01-27T03:48:55.052Z,19.40
2023-01-27T03:51:24.895Z,20.60
2023-01-27T03:53:53.539Z,18.70
2023-01-27T03:56:22.390Z,19.50
2023-01-27T03:58:50.999Z,18.30
2023-01-27T04:01:21.806Z,18.90
2023-01-27T04:04:09.476Z,18.30
2023-01-27T04:06:53.461Z,20.70
2023-01-27T04:09:23.645Z,19.40
2023-01-27T04:11:55.671Z,19.80
2023-01-27T04:14:25.993Z,15.10
2023-01-27T04:16:56.821Z,20.00
2023-01-27T04:19:25.531Z,18.90
2023-01-27T04:21:54.869Z,19.40
2023-01-27T04:24:24.061Z,19.50
2023-01-27T04:26:55.561Z,18.80
2023-01-27T04:29:26.108Z,19.40
2023-01-27T04:31:55.241Z,20.20
2023-01-27T04:34:24.021Z,19.40
2023-01-27T04:36:52.868Z,19.40
2023-01-27T04:39:21.752Z,19.10
2023-01-27T04:41:50.924Z,17.80
2023-01-27T04:44:19.745Z,19.60
2023-01-27T04:46:48.661Z,18.90
2023-01-27T04:49:17.664Z,18.90
2023-01-27T04:51:47.451Z,20.00
2023-01-27T04:54:16.982Z,17.80
2023-01-27T04:56:56.840Z,18.80
2023-01-27T04:59:26.070Z,18.20
2023-01-27T05:01:54.577Z,18.40
2023-01-27T05:04:24.752Z,17.90
2023-01-27T05:06:53.519Z,19.50
2023-01-27T05:09:22.383Z,18.90
2023-01-27T05:11:50.888Z,19.20
2023-01-27T05:14:22.734Z,18.60
2023-01-27T05:16:51.996Z,21.50
2023-01-27T05:19:20.428Z,18.40
2023-01-27T05:21:48.795Z,20.00
2023-01-27T05:24:17.290Z,19.80
2023-01-27T05:26:45.944Z,20.40
2023-01-27T05:29:14.257Z,19.30
2023-01-27T05:31:42.625Z,19.70
2023-01-27T05:34:11.034Z,19.80
2023-01-27T05:36:39.421Z,19.60
2023-01-27T05:39:10.985Z,18.90
2023-01-27T05:41:39.345Z,18.00
2023-01-27T05:44:09.916Z,18.20
2023-01-27T05:46:40.862Z,19.60
2023-01-27T05:49:09.634Z,18.40
2023-01-27T05:51:39.326Z,17.90
2023-01-27T05:54:08.656Z,20.30
2023-01-27T05:56:37.378Z,20.80
2023-01-27T05:59:06.223Z,19.30
2023-01-27T06:01:36.785Z,19.80
2023-01-27T06:04:05.667Z,18.80
2023-01-27T06:06:34.880Z,20.40
2023-01-27T06:09:03.356Z,20.00
2023-01-27T06:11:31.731Z,20.70
2023-01-27T06:14:00.047Z,20.20
2023-01-27T06:16:28.898Z,18.30
2023-01-27T06:18:57.839Z,18.30
2023-01-27T06:21:26.221Z,19.60
2023-01-27T06:23:55.247Z,20.70
2023-01-27T06:26:23.664Z,19.10
2023-01-27T06:28:52.084Z,20.40
2023-01-27T06:31:22.344Z,22.20
2023-01-27T06:33:52.081Z,19.40
2023-01-27T06:36:21.934Z,19.50
2023-01-27T06:38:50.994Z,20.90
2023-01-27T06:41:20.906Z,20.30
2023-01-27T06:43:49.353Z,22.00
2023-01-27T06:46:18.134Z,21.40
2023-01-27T06:48:46.959Z,20.50
2023-01-27T06:51:15.784Z,18.50
2023-01-27T06:53:44.231Z,18.10
2023-01-27T06:56:12.717Z,19.70
2023-01-27T06:58:42.441Z,18.50
2023-01-27T07:01:11.169Z,16.60
2023-01-27T07:03:39.550Z,16.90
2023-01-27T07:06:10.253Z,17.50
2023-01-27T07:08:38.757Z,17.00
2023-01-27T07:11:07.668Z,16.00
2023-01-27T07:13:36.125Z,17.90
2023-01-27T07:16:05.910Z,18.20
2023-01-27T07:18:34.727Z,17.10
2023-01-27T07:21:05.114Z,17.00
2023-01-27T07:23:33.875Z,16.60
2023-01-27T07:26:05.728Z,16.70
2023-01-27T07:28:40.992Z,17.10
2023-01-27T07:31:09.949Z,16.60
2023-01-27T07:33:38.671Z,15.30
2023-01-27T07:36:07.492Z,14.30
2023-01-27T07:38:35.873Z,15.70
2023-01-27T07:41:06.049Z,17.90
2023-01-27T07:43:34.821Z,16.20
2023-01-27T07:46:09.373Z,16.80
2023-01-27T07:48:37.832Z,17.80
2023-01-27T07:51:06.295Z,21.40
2023-01-27T07:53:35.177Z,29.90
2023-01-27T07:56:03.908Z,24.10
2023-01-27T07:58:32.278Z,21.70
2023-01-27T08:01:05.682Z,20.80
2023-01-27T08:03:35.260Z,20.10
2023-01-27T08:06:06.250Z,22.60
2023-01-27T08:08:37.227Z,27.60
2023-01-27T08:11:08.749Z,24.30
2023-01-27T08:13:37.387Z,22.80
2023-01-27T08:16:08.143Z,19.60
2023-01-27T08:18:36.684Z,20.80
2023-01-27T08:21:07.847Z,23.30
2023-01-27T08:23:36.912Z,20.50
2023-01-27T08:26:06.946Z,20.30
2023-01-27T08:28:37.145Z,19.40
2023-01-27T08:31:07.762Z,18.20
2023-01-27T08:33:36.963Z,20.40
2023-01-27T08:36:08.417Z,19.20
2023-01-27T08:38:37.957Z,18.00
2023-01-27T08:41:07.846Z,18.70
2023-01-27T08:43:36.608Z,16.70
2023-01-27T08:46:08.399Z,18.40
2023-01-27T08:48:38.209Z,17.20
2023-01-27T08:51:08.700Z,19.00
2023-01-27T08:53:37.819Z,18.40
2023-01-27T08:56:10.563Z,18.10
2023-01-27T08:58:39.245Z,16.80
2023-01-27T09:01:07.874Z,17.50
2023-01-27T09:03:36.930Z,17.70
2023-01-27T09:06:09.029Z,17.20
2023-01-27T09:08:37.818Z,17.50
2023-01-27T09:11:10.958Z,17.60
2023-01-27T09:13:39.797Z,17.50
2023-01-27T09:16:10.001Z,18.40
2023-01-27T09:18:38.690Z,19.10
2023-01-27T09:21:07.424Z,18.30
2023-01-27T09:23:35.794Z,20.20
2023-01-27T09:26:04.716Z,21.30
2023-01-27T09:28:33.636Z,23.40
2023-01-27T09:31:02.367Z,25.20
2023-01-27T09:33:31.007Z,26.50
2023-01-27T09:36:03.002Z,21.20
2023-01-27T09:38:36.226Z,28.40
2023-01-27T09:41:22.939Z,18.80
2023-01-27T09:44:11.874Z,17.90
2023-01-27T09:46:59.545Z,16.60
2023-01-27T09:49:49.529Z,16.50
2023-01-27T09:52:47.281Z,14.30
2023-01-27T09:55:25.849Z,16.40
2023-01-27T09:58:04.393Z,17.30
2023-01-27T10:00:45.869Z,15.50
2023-01-27T10:03:33.649Z,16.50
2023-01-27T10:06:28.383Z,14.90
2023-01-27T10:09:28.298Z,15.50
2023-01-27T10:12:05.480Z,14.90
2023-01-27T10:14:43.155Z,15.80
2023-01-27T10:17:25.646Z,16.60
2023-01-27T10:20:18.742Z,15.00
2023-01-27T10:25:34.918Z,16.20
2023-01-27T10:28:10.869Z,15.80
2023-01-27T10:30:49.811Z,16.70
2023-01-27T10:33:20.300Z,14.90
2023-01-27T10:35:52.993Z,15.60
2023-01-27T10:38:34.555Z,17.70
2023-01-27T10:41:16.230Z,16.40
2023-01-27T10:43:58.745Z,18.10
2023-01-27T10:46:34.305Z,18.00
2023-01-27T10:49:07.964Z,18.60
2023-01-27T10:51:42.298Z,17.80
2023-01-27T10:54:17.327Z,18.00
2023-01-27T10:56:51.111Z,18.60
2023-01-27T10:59:26.196Z,19.60
2023-01-27T11:02:00.033Z,19.40
2023-01-27T11:04:38.332Z,19.60
2023-01-27T11:07:07.308Z,21.00
2023-01-27T11:09:49.159Z,18.90
2023-01-27T11:12:25.294Z,19.50
2023-01-27T11:14:54.435Z,22.30
2023-01-27T11:17:31.764Z,20.50
2023-01-27T11:20:12.415Z,19.10
2023-01-27T11:22:53.239Z,18.80
2023-01-27T11:25:28.228Z,19.20
2023-01-27T11:28:24.759Z,18.30
2023-01-27T11:31:02.694Z,18.50
2023-01-27T11:33:45.611Z,19.60
2023-01-27T11:38:45.295Z,18.60
2023-01-27T11:41:14.415Z,18.30
2023-01-27T11:43:43.244Z,21.80
2023-01-27T11:46:17.830Z,20.40
2023-01-27T11:48:50.956Z,18.90
2023-01-27T11:51:25.095Z,19.20
2023-01-27T11:54:02.948Z,21.20
2023-01-27T11:56:34.373Z,20.90
2023-01-27T11:59:10.831Z,21.40
2023-01-27T12:01:47.474Z,20.90
2023-01-27T12:04:23.970Z,18.00
2023-01-27T12:06:59.302Z,18.70
2023-01-27T12:09:34.489Z,21.60
2023-01-27T12:12:22.908Z,19.90
2023-01-27T12:14:54.304Z,21.00
2023-01-27T12:17:33.061Z,21.70
2023-01-27T12:20:06.491Z,23.80
2023-01-27T12:22:40.143Z,23.20
2023-01-27T12:25:20.049Z,23.60
2023-01-27T12:27:52.752Z,22.20
2023-01-27T12:32:51.867Z,19.30
2023-01-27T12:35:27.607Z,20.20
2023-01-27T12:38:01.502Z,19.10
2023-01-27T12:40:32.299Z,20.80
2023-01-27T12:43:13.855Z,20.00
2023-01-27T12:45:43.841Z,21.30
2023-01-27T12:48:21.265Z,20.20
2023-01-27T12:51:13.690Z,21.90
2023-01-27T12:53:43.473Z,21.00
2023-01-27T12:56:14.607Z,22.40
2023-01-27T12:58:45.745Z,20.50
2023-01-27T13:01:27.655Z,21.00
2023-01-27T13:03:59.834Z,24.50
2023-01-27T13:06:41.932Z,31.10
2023-01-27T13:09:27.594Z,24.30
2023-01-27T13:12:00.296Z,22.90
2023-01-27T13:16:58.635Z,29.30
2023-01-27T13:19:36.177Z,27.90
2023-01-27T13:22:05.791Z,28.30
2023-01-27T13:24:42.281Z,21.10
2023-01-27T13:27:15.420Z,24.90
2023-01-27T13:29:59.676Z,25.90
2023-01-27T13:32:32.823Z,22.70
2023-01-27T13:35:08.242Z,20.30
2023-01-27T13:37:42.045Z,20.50
2023-01-27T13:40:18.582Z,23.40
2023-01-27T13:42:53.075Z,20.80
2023-01-27T13:45:23.978Z,21.90
2023-01-27T13:47:58.128Z,20.00
2023-01-27T13:50:34.053Z,20.50
2023-01-27T13:53:04.046Z,22.70
2023-01-27T13:55:47.002Z,21.50
2023-01-27T13:58:25.628Z,23.10
2023-01-27T14:01:02.101Z,22.70
2023-01-27T14:03:51.986Z,25.90
2023-01-27T14:06:36.089Z,25.40
2023-01-27T14:09:15.816Z,28.60
2023-01-27T14:11:51.275Z,25.20
2023-01-27T14:14:32.196Z,26.70
2023-01-27T14:17:14.247Z,25.20
2023-01-27T14:19:53.513Z,22.60
2023-01-27T14:22:32.764Z,25.00
2023-01-27T14:25:19.471Z,23.60
2023-01-27T14:30:34.566Z,22.70
2023-01-27T14:33:12.102Z,24.50
2023-01-27T14:35:45.617Z,25.50
2023-01-27T14:38:26.479Z,24.40
2023-01-27T14:41:09.983Z,26.40
2023-01-27T14:43:47.685Z,28.40
2023-01-27T14:46:28.818Z,27.10
2023-01-27T14:49:07.605Z,28.00
2023-01-27T14:51:44.134Z,26.20
2023-01-27T14:54:28.372Z,26.40
2023-01-27T14:57:25.899Z,24.30
2023-01-27T15:00:05.023Z,24.30
2023-01-27T15:02:43.826Z,25.00
2023-01-27T15:05:21.944Z,26.30
2023-01-27T15:07:57.915Z,25.60
2023-01-27T15:10:28.466Z,26.80
2023-01-27T15:13:26.471Z,26.90
2023-01-27T15:16:32.952Z,24.70
2023-01-27T15:19:27.258Z,25.10
2023-01-27T15:22:31.256Z,24.40
2023-01-27T15:25:19.640Z,24.10
2023-01-27T15:27:52.447Z,25.10
2023-01-27T15:30:29.319Z,24.90
2023-01-27T15:32:58.096Z,23.90
2023-01-27T15:35:43.902Z,25.90
2023-01-27T15:38:32.448Z,25.10
2023-01-27T15:41:07.525Z,25.50
2023-01-27T15:43:39.987Z,25.60
2023-01-27T15:46:25.089Z,25.30
2023-01-27T15:48:55.670Z,24.20
2023-01-27T15:51:25.138Z,22.50
2023-01-27T15:53:56.522Z,23.20
2023-01-27T15:56:48.113Z,21.90
2023-01-27T15:59:20.668Z,22.10
2023-01-27T16:01:59.005Z,21.50
2023-01-27T16:04:28.975Z,20.70
2023-01-27T16:07:01.458Z,22.00
2023-01-27T16:12:04.686Z,22.20
2023-01-27T16:14:44.273Z,22.20
2023-01-27T16:17:24.651Z,20.20
2023-01-27T16:20:09.706Z,19.10
2023-01-27T16:22:40.540Z,17.80
2023-01-27T16:25:24.641Z,18.60
2023-01-27T16:27:58.943Z,20.10
2023-01-27T16:30:30.869Z,18.50
2023-01-27T16:33:05.712Z,13.80
2023-01-27T16:35:41.919Z,17.40
2023-01-27T16:38:22.832Z,16.80
2023-01-27T16:40:56.346Z,17.60
2023-01-27T16:43:31.070Z,16.40
2023-01-27T16:46:01.400Z,16.80
2023-01-27T16:48:36.024Z,15.80
2023-01-27T16:51:14.828Z,16.10
2023-01-27T16:53:49.027Z,15.40
2023-01-27T16:56:22.167Z,15.70
2023-01-27T16:58:51.826Z,15.40
2023-01-27T17:01:25.535Z,14.70
2023-01-27T17:04:00.626Z,16.30
2023-01-27T17:06:32.394Z,15.90
2023-01-27T17:09:01.801Z,22.00
2023-01-27T17:11:32.688Z,19.70
2023-01-27T17:14:02.696Z,17.00
2023-01-27T17:16:35.021Z,15.00
2023-01-27T17:19:09.009Z,19.40
2023-01-27T17:21:41.917Z,17.20
2023-01-27T17:24:18.408Z,17.50
2023-01-27T17:26:54.655Z,16.80
2023-01-27T17:29:27.056Z,17.70
2023-01-27T17:31:55.745Z,17.90
2023-01-27T17:34:25.017Z,16.20
2023-01-27T17:37:14.411Z,11.50
2023-01-27T17:39:44.499Z,10.30
2023-01-27T17:42:18.505Z,14.90
2023-01-27T17:44:48.542Z,16.80
2023-01-27T17:47:18.780Z,19.80
2023-01-27T17:49:49.530Z,12.80
2023-01-27T17:52:22.355Z,13.20
2023-01-27T17:54:51.899Z,11.00
2023-01-27T17:57:22.508Z,10.20
2023-01-27T18:00:00.675Z,9.00
2023-01-27T18:02:33.296Z,9.20
2023-01-27T18:05:05.251Z,10.10
2023-01-27T18:07:34.493Z,9.70
2023-01-27T18:10:23.745Z,8.60
2023-01-27T18:12:54.131Z,9.30
2023-01-27T18:15:39.044Z,9.20
2023-01-27T18:18:21.161Z,9.60
2023-01-27T18:21:01.945Z,7.70
2023-01-27T18:23:32.830Z,8.80
2023-01-27T18:26:16.389Z,7.80
2023-01-27T18:28:49.571Z,7.80
2023-01-27T18:31:21.627Z,6.40
2023-01-27T18:33:58.818Z,6.30
2023-01-27T18:36:33.965Z,7.10
2023-01-27T18:39:03.289Z,6.20
2023-01-27T18:41:34.761Z,6.10
2023-01-27T18:44:03.053Z,5.80
2023-01-27T18:46:31.646Z,6.00
2023-01-27T18:49:00.508Z,6.60
2023-01-27T18:51:29.295Z,5.70
2023-01-27T18:53:57.603Z,6.40
2023-01-27T18:56:26.168Z,6.30
2023-01-27T18:58:54.530Z,6.10
2023-01-27T19:01:24.224Z,5.60
2023-01-27T19:03:56.483Z,6.00
2023-01-27T19:06:26.065Z,5.80
2023-01-27T19:08:54.516Z,5.90
2023-01-27T19:11:26.059Z,5.40
2023-01-27T19:13:55.077Z,5.50
2023-01-27T19:16:25.700Z,5.20
2023-01-27T19:18:55.804Z,6.10
2023-01-27T19:21:25.006Z,5.90
2023-01-27T19:23:53.531Z,5.50
2023-01-27T19:26:23.577Z,5.30
2023-01-27T19:28:55.158Z,5.70
2023-01-27T19:31:24.622Z,5.40
2023-01-27T19:33:53.408Z,5.10
2023-01-27T19:36:27.307Z,5.30
2023-01-27T19:39:01.243Z,6.00
2023-01-27T19:41:29.712Z,5.90
2023-01-27T19:43:58.368Z,5.20
2023-01-27T19:46:27.103Z,5.50
2023-01-27T19:48:56.176Z,5.90
2023-01-27T19:51:26.191Z,5.40
2023-01-27T19:53:54.632Z,5.60
2023-01-27T19:56:24.683Z,5.50
2023-01-27T19:58:54.348Z,5.80
2023-01-27T20:01:24.214Z,5.30
2023-01-27T20:03:53.628Z,5.90
2023-01-27T20:06:24.479Z,5.70
2023-01-27T20:08:54.567Z,5.60
2023-01-27T20:11:33.507Z,6.30
2023-01-27T20:14:03.139Z,6.30
2023-01-27T20:16:32.400Z,5.80
2023-01-27T20:19:03.876Z,5.50
2023-01-27T20:21:33.784Z,6.40
2023-01-27T20:24:03.761Z,6.20
2023-01-27T20:26:32.764Z,6.10
2023-01-27T20:29:01.077Z,6.20
2023-01-27T20:31:29.780Z,6.10
2023-01-27T20:33:59.225Z,6.20
2023-01-27T20:36:28.067Z,5.90
2023-01-27T20:38:56.339Z,6.30
2023-01-27T20:41:24.991Z,5.80
2023-01-27T20:43:56.453Z,6.10
2023-01-27T20:46:25.318Z,6.20
2023-01-27T20:48:53.989Z,6.50
2023-01-27T20:51:22.496Z,6.30
2023-01-27T20:53:51.287Z,7.10
2023-01-27T20:56:21.873Z,6.80
2023-01-27T20:58:50.797Z,7.40
2023-01-27T21:01:22.005Z,9.50
2023-01-27T21:03:51.233Z,10.50
2023-01-27T21:06:20.436Z,19.50
2023-01-27T21:08:49.863Z,20.50
2023-01-27T21:11:20.677Z,15.50
2023-01-27T21:13:51.473Z,13.70
2023-01-27T21:16:20.470Z,12.30
2023-01-27T21:18:49.248Z,15.20
2023-01-27T21:21:23.726Z,21.70
2023-01-27T21:23:52.699Z,18.90
2023-01-27T21:26:21.896Z,17.10
2023-01-27T21:28:50.674Z,24.00
2023-01-27T21:31:23.551Z,17.40
2023-01-27T21:33:51.976Z,28.10
2023-01-27T21:36:20.397Z,19.10
2023-01-27T21:38:52.285Z,10.00
2023-01-27T21:41:41.415Z,13.00
2023-01-27T21:44:34.814Z,8.00
2023-01-27T21:49:55.795Z,10.10
2023-01-27T21:52:25.583Z,8.60
2023-01-27T21:54:54.190Z,9.40
2023-01-27T21:57:22.844Z,9.80
2023-01-27T21:59:51.452Z,8.60
2023-01-27T22:02:19.832Z,9.70
2023-01-27T22:04:49.402Z,9.50
2023-01-27T22:07:19.702Z,7.70
2023-01-27T22:09:49.656Z,8.20
2023-01-27T22:12:21.454Z,9.10
2023-01-27T22:14:49.999Z,10.50
2023-01-27T22:17:20.117Z,7.30
2023-01-27T22:19:49.277Z,7.90
2023-01-27T22:22:18.601Z,9.00
2023-01-27T22:24:47.120Z,7.90
2023-01-27T22:27:15.472Z,9.60
2023-01-27T22:29:43.918Z,7.90
2023-01-27T22:32:12.695Z,9.00
2023-01-27T22:34:42.770Z,8.20
2023-01-27T22:37:11.163Z,7.80
2023-01-27T22:39:41.505Z,8.20
2023-01-27T22:42:10.680Z,7.10
2023-01-27T22:44:39.614Z,6.80
2023-01-27T22:47:08.079Z,5.60
2023-01-27T22:49:36.443Z,6.00
2023-01-27T22:52:04.971Z,6.90
2023-01-27T22:54:33.314Z,6.10
2023-01-27T22:57:01.892Z,6.60
2023-01-27T22:59:30.295Z,6.10
2023-01-27T23:01:58.789Z,6.90
2023-01-27T23:04:27.316Z,6.90
2023-01-27T23:06:55.852Z,6.80
2023-01-27T23:09:24.527Z,6.60
2023-01-27T23:11:53.171Z,6.50
2023-01-27T23:14:21.854Z,5.60
2023-01-27T23:16:52.093Z,7.40
2023-01-27T23:19:21.558Z,6.00
2023-01-27T23:21:49.877Z,6.40
2023-01-27T23:24:18.616Z,5.90
2023-01-27T23:26:47.546Z,6.90
2023-01-27T23:29:24.704Z,5.90
2023-01-27T23:31:54.107Z,5.40
2023-01-27T23:34:23.058Z,6.00
2023-01-27T23:36:51.441Z,5.60
2023-01-27T23:39:19.998Z,4.80
2023-01-27T23:41:48.428Z,5.00
2023-01-27T23:44:17.252Z,4.60
2023-01-27T23:46:45.745Z,4.80
2023-01-27T23:49:14.774Z,5.60
2023-01-27T23:51:43.115Z,4.80
2023-01-27T23:54:11.505Z,4.90
2023-01-27T23:56:40.768Z,4.80
2023-01-27T23:59:11.019Z,4.50
